sensor_id;sensor_type;location;lat;lon;timestamp;temperature;humidity
35463;DHT22;21578;47.892;9.970;2023-05-07T00:04:02;14.50;96.60
35463;DHT22;21578;47.892;9.970;2023-05-07T00:08:49;14.40;96.60
35463;DHT22;21578;47.892;9.970;2023-05-07T00:13:36;14.30;96.60
35463;DHT22;21578;47.892;9.970;2023-05-07T00:18:24;14.20;96.60
35463;DHT22;21578;47.892;9.970;2023-05-07T00:23:11;14.20;96.60
35463;DHT22;21578;47.892;9.970;2023-05-07T00:27:58;14.10;96.60
35463;DHT22;21578;47.892;9.970;2023-05-07T00:32:49;14.10;96.60
35463;DHT22;21578;47.892;9.970;2023-05-07T00:37:37;14.20;96.60
35463;DHT22;21578;47.892;9.970;2023-05-07T00:42:24;14.40;96.60
35463;DHT22;21578;47.892;9.970;2023-05-07T00:47:11;14.40;96.60
35463;DHT22;21578;47.892;9.970;2023-05-07T00:51:58;14.40;96.60
35463;DHT22;21578;47.892;9.970;2023-05-07T00:56:48;14.30;96.60
35463;DHT22;21578;47.892;9.970;2023-05-07T01:01:35;14.10;96.60
35463;DHT22;21578;47.892;9.970;2023-05-07T01:06:23;14.10;96.60
35463;DHT22;21578;47.892;9.970;2023-05-07T01:11:13;14.10;96.60
35463;DHT22;21578;47.892;9.970;2023-05-07T01:16:02;14.00;96.60
35463;DHT22;21578;47.892;9.970;2023-05-07T01:20:49;14.00;96.60
35463;DHT22;21578;47.892;9.970;2023-05-07T01:25:38;14.00;96.60
35463;DHT22;21578;47.892;9.970;2023-05-07T01:30:24;14.00;96.60
35463;DHT22;21578;47.892;9.970;2023-05-07T01:35:19;13.90;96.60
35463;DHT22;21578;47.892;9.970;2023-05-07T01:40:07;13.80;96.60
35463;DHT22;21578;47.892;9.970;2023-05-07T01:44:56;13.80;96.60
35463;DHT22;21578;47.892;9.970;2023-05-07T01:49:43;13.90;96.60
35463;DHT22;21578;47.892;9.970;2023-05-07T01:54:30;13.70;96.60
35463;DHT22;21578;47.892;9.970;2023-05-07T01:59:17;13.60;96.60
35463;DHT22;21578;47.892;9.970;2023-05-07T02:04:05;13.60;96.60
35463;DHT22;21578;47.892;9.970;2023-05-07T02:08:52;13.50;96.60
35463;DHT22;21578;47.892;9.970;2023-05-07T02:13:39;13.40;96.60
35463;DHT22;21578;47.892;9.970;2023-05-07T02:18:26;13.50;96.60
35463;DHT22;21578;47.892;9.970;2023-05-07T02:23:14;13.60;96.60
35463;DHT22;21578;47.892;9.970;2023-05-07T02:28:01;13.60;96.60
35463;DHT22;21578;47.892;9.970;2023-05-07T02:32:48;13.60;96.60
35463;DHT22;21578;47.892;9.970;2023-05-07T02:37:35;13.60;96.60
35463;DHT22;21578;47.892;9.970;2023-05-07T02:42:23;13.40;96.60
35463;DHT22;21578;47.892;9.970;2023-05-07T02:47:10;13.20;96.60
35463;DHT22;21578;47.892;9.970;2023-05-07T02:51:58;13.20;96.60
35463;DHT22;21578;47.892;9.970;2023-05-07T02:56:45;13.20;96.60
35463;DHT22;21578;47.892;9.970;2023-05-07T03:01:33;13.10;96.60
35463;DHT22;21578;47.892;9.970;2023-05-07T03:06:21;13.00;96.60
35463;DHT22;21578;47.892;9.970;2023-05-07T03:11:08;12.90;96.60
35463;DHT22;21578;47.892;9.970;2023-05-07T03:15:54;12.90;96.60
35463;DHT22;21578;47.892;9.970;2023-05-07T03:20:43;12.90;96.60
35463;DHT22;21578;47.892;9.970;2023-05-07T03:25:30;12.80;96.60
35463;DHT22;21578;47.892;9.970;2023-05-07T03:30:17;12.80;96.60
35463;DHT22;21578;47.892;9.970;2023-05-07T03:35:04;12.70;96.60
35463;DHT22;21578;47.892;9.970;2023-05-07T03:39:53;12.60;96.60
35463;DHT22;21578;47.892;9.970;2023-05-07T03:44:39;12.60;96.60
35463;DHT22;21578;47.892;9.970;2023-05-07T03:49:26;12.50;96.60
35463;DHT22;21578;47.892;9.970;2023-05-07T03:54:13;12.50;96.60
35463;DHT22;21578;47.892;9.970;2023-05-07T03:59:02;12.30;96.60
35463;DHT22;21578;47.892;9.970;2023-05-07T04:03:49;12.20;96.60
35463;DHT22;21578;47.892;9.970;2023-05-07T04:08:36;12.30;96.60
35463;DHT22;21578;47.892;9.970;2023-05-07T04:13:23;12.20;96.60
35463;DHT22;21578;47.892;9.970;2023-05-07T04:18:11;12.10;96.60
35463;DHT22;21578;47.892;9.970;2023-05-07T04:22:58;12.10;96.60
35463;DHT22;21578;47.892;9.970;2023-05-07T04:27:45;12.20;96.60
35463;DHT22;21578;47.892;9.970;2023-05-07T04:32:32;12.30;96.60
35463;DHT22;21578;47.892;9.970;2023-05-07T04:37:20;12.20;96.60
35463;DHT22;21578;47.892;9.970;2023-05-07T04:42:07;12.10;96.60
35463;DHT22;21578;47.892;9.970;2023-05-07T04:46:54;12.10;96.60
35463;DHT22;21578;47.892;9.970;2023-05-07T04:51:41;12.20;96.60
35463;DHT22;21578;47.892;9.970;2023-05-07T04:56:30;12.30;96.60
35463;DHT22;21578;47.892;9.970;2023-05-07T05:01:17;12.50;96.60
35463;DHT22;21578;47.892;9.970;2023-05-07T05:06:04;12.40;96.60
35463;DHT22;21578;47.892;9.970;2023-05-07T05:10:51;12.40;96.60
35463;DHT22;21578;47.892;9.970;2023-05-07T05:15:39;12.50;96.60
35463;DHT22;21578;47.892;9.970;2023-05-07T05:20:26;12.60;96.60
35463;DHT22;21578;47.892;9.970;2023-05-07T05:25:13;12.60;96.60
35463;DHT22;21578;47.892;9.970;2023-05-07T05:30:00;12.70;96.60
35463;DHT22;21578;47.892;9.970;2023-05-07T05:34:48;12.90;96.60
35463;DHT22;21578;47.892;9.970;2023-05-07T05:39:36;13.00;96.60
35463;DHT22;21578;47.892;9.970;2023-05-07T05:44:23;13.10;96.60
35463;DHT22;21578;47.892;9.970;2023-05-07T06:05:40;13.90;96.60
35463;DHT22;21578;47.892;9.970;2023-05-07T06:10:27;14.20;96.60
35463;DHT22;21578;47.892;9.970;2023-05-07T06:15:15;14.30;96.60
35463;DHT22;21578;47.892;9.970;2023-05-07T06:20:02;14.40;96.60
35463;DHT22;21578;47.892;9.970;2023-05-07T06:24:51;14.50;96.60
35463;DHT22;21578;47.892;9.970;2023-05-07T06:29:38;14.50;96.60
35463;DHT22;21578;47.892;9.970;2023-05-07T06:34:25;14.50;96.60
35463;DHT22;21578;47.892;9.970;2023-05-07T06:39:12;14.60;96.60
35463;DHT22;21578;47.892;9.970;2023-05-07T06:44:01;14.80;96.60
35463;DHT22;21578;47.892;9.970;2023-05-07T06:48:48;14.90;96.60
35463;DHT22;21578;47.892;9.970;2023-05-07T06:53:35;15.10;96.60
35463;DHT22;21578;47.892;9.970;2023-05-07T06:58:22;15.20;95.70
35463;DHT22;21578;47.892;9.970;2023-05-07T07:03:11;15.30;96.50
35463;DHT22;21578;47.892;9.970;2023-05-07T07:25:29;15.80;95.20
35463;DHT22;21578;47.892;9.970;2023-05-07T07:30:47;16.00;94.30
35463;DHT22;21578;47.892;9.970;2023-05-07T07:35:50;16.20;91.20
35463;DHT22;21578;47.892;9.970;2023-05-07T07:40:52;16.30;91.50
35463;DHT22;21578;47.892;9.970;2023-05-07T07:45:40;16.50;89.60
35463;DHT22;21578;47.892;9.970;2023-05-07T07:50:27;16.60;90.10
35463;DHT22;21578;47.892;9.970;2023-05-07T07:55:14;16.70;90.30
35463;DHT22;21578;47.892;9.970;2023-05-07T08:00:06;16.80;90.90
35463;DHT22;21578;47.892;9.970;2023-05-07T08:04:53;16.90;91.90
35463;DHT22;21578;47.892;9.970;2023-05-07T08:09:41;17.00;91.80
35463;DHT22;21578;47.892;9.970;2023-05-07T08:14:28;17.10;91.30
35463;DHT22;21578;47.892;9.970;2023-05-07T08:19:16;17.20;91.30
35463;DHT22;21578;47.892;9.970;2023-05-07T08:24:04;17.30;91.80
35463;DHT22;21578;47.892;9.970;2023-05-07T08:28:51;17.60;89.70
35463;DHT22;21578;47.892;9.970;2023-05-07T08:33:38;17.70;91.00
35463;DHT22;21578;47.892;9.970;2023-05-07T08:38:26;17.80;92.70
35463;DHT22;21578;47.892;9.970;2023-05-07T08:43:13;18.00;91.40
35463;DHT22;21578;47.892;9.970;2023-05-07T08:48:03;18.10;91.30
35463;DHT22;21578;47.892;9.970;2023-05-07T08:52:51;18.30;90.00
35463;DHT22;21578;47.892;9.970;2023-05-07T08:57:40;18.40;89.70
35463;DHT22;21578;47.892;9.970;2023-05-07T09:02:45;18.50;89.30
35463;DHT22;21578;47.892;9.970;2023-05-07T09:07:41;18.60;88.00
35463;DHT22;21578;47.892;9.970;2023-05-07T09:12:33;18.80;88.70
35463;DHT22;21578;47.892;9.970;2023-05-07T09:17:37;18.90;87.80
35463;DHT22;21578;47.892;9.970;2023-05-07T09:22:31;19.20;87.40
35463;DHT22;21578;47.892;9.970;2023-05-07T09:27:24;19.50;86.20
35463;DHT22;21578;47.892;9.970;2023-05-07T09:32:40;19.50;86.00
35463;DHT22;21578;47.892;9.970;2023-05-07T09:37:41;19.60;85.70
35463;DHT22;21578;47.892;9.970;2023-05-07T09:42:28;19.80;84.60
35463;DHT22;21578;47.892;9.970;2023-05-07T09:47:19;20.00;83.70
35463;DHT22;21578;47.892;9.970;2023-05-07T09:52:09;20.30;82.20
35463;DHT22;21578;47.892;9.970;2023-05-07T09:56:58;20.60;80.60
35463;DHT22;21578;47.892;9.970;2023-05-07T10:01:46;20.80;80.60
35463;DHT22;21578;47.892;9.970;2023-05-07T10:06:34;21.00;78.80
35463;DHT22;21578;47.892;9.970;2023-05-07T10:11:23;21.00;78.30
35463;DHT22;21578;47.892;9.970;2023-05-07T10:16:10;21.20;77.80
35463;DHT22;21578;47.892;9.970;2023-05-07T10:21:02;21.50;75.80
35463;DHT22;21578;47.892;9.970;2023-05-07T10:25:49;21.40;75.20
35463;DHT22;21578;47.892;9.970;2023-05-07T10:30:48;21.30;75.80
35463;DHT22;21578;47.892;9.970;2023-05-07T10:35:41;21.40;76.60
35463;DHT22;21578;47.892;9.970;2023-05-07T10:40:33;21.80;75.00
35463;DHT22;21578;47.892;9.970;2023-05-07T10:45:21;22.10;73.50
35463;DHT22;21578;47.892;9.970;2023-05-07T10:50:25;22.50;72.40
35463;DHT22;21578;47.892;9.970;2023-05-07T10:55:19;22.70;72.60
35463;DHT22;21578;47.892;9.970;2023-05-07T11:00:41;23.10;72.00
35463;DHT22;21578;47.892;9.970;2023-05-07T11:05:30;22.90;70.70
35463;DHT22;21578;47.892;9.970;2023-05-07T11:10:18;22.70;70.10
35463;DHT22;21578;47.892;9.970;2023-05-07T11:15:07;23.00;70.00
35463;DHT22;21578;47.892;9.970;2023-05-07T11:19:55;23.30;65.80
35463;DHT22;21578;47.892;9.970;2023-05-07T11:24:44;23.70;64.50
35463;DHT22;21578;47.892;9.970;2023-05-07T11:29:33;23.70;64.60
35463;DHT22;21578;47.892;9.970;2023-05-07T11:34:24;23.80;66.30
35463;DHT22;21578;47.892;9.970;2023-05-07T11:39:28;24.10;65.50
35463;DHT22;21578;47.892;9.970;2023-05-07T11:44:16;24.20;65.40
35463;DHT22;21578;47.892;9.970;2023-05-07T11:49:03;23.90;65.30
35463;DHT22;21578;47.892;9.970;2023-05-07T11:53:50;23.80;68.30
35463;DHT22;21578;47.892;9.970;2023-05-07T11:58:37;23.80;70.50
35463;DHT22;21578;47.892;9.970;2023-05-07T12:03:26;24.00;70.10
35463;DHT22;21578;47.892;9.970;2023-05-07T12:08:14;24.00;68.80
35463;DHT22;21578;47.892;9.970;2023-05-07T12:13:01;24.00;69.60
35463;DHT22;21578;47.892;9.970;2023-05-07T12:17:48;24.20;69.40
35463;DHT22;21578;47.892;9.970;2023-05-07T12:22:37;24.40;69.20
35463;DHT22;21578;47.892;9.970;2023-05-07T12:27:25;24.30;68.40
35463;DHT22;21578;47.892;9.970;2023-05-07T12:32:13;24.10;68.40
35463;DHT22;21578;47.892;9.970;2023-05-07T12:37:02;23.60;69.20
35463;DHT22;21578;47.892;9.970;2023-05-07T12:41:54;23.60;69.00
35463;DHT22;21578;47.892;9.970;2023-05-07T12:46:41;23.80;68.20
35463;DHT22;21578;47.892;9.970;2023-05-07T12:51:28;24.00;68.00
35463;DHT22;21578;47.892;9.970;2023-05-07T12:56:16;23.50;68.10
35463;DHT22;21578;47.892;9.970;2023-05-07T13:01:06;23.40;63.80
35463;DHT22;21578;47.892;9.970;2023-05-07T13:05:55;23.70;63.00
35463;DHT22;21578;47.892;9.970;2023-05-07T13:10:42;23.90;64.90
35463;DHT22;21578;47.892;9.970;2023-05-07T13:15:29;24.00;64.70
35463;DHT22;21578;47.892;9.970;2023-05-07T13:20:17;23.90;64.60
35463;DHT22;21578;47.892;9.970;2023-05-07T13:25:05;23.80;63.50
35463;DHT22;21578;47.892;9.970;2023-05-07T13:29:52;23.80;65.00
35463;DHT22;21578;47.892;9.970;2023-05-07T13:34:39;24.50;66.10
35463;DHT22;21578;47.892;9.970;2023-05-07T13:39:27;24.50;65.10
35463;DHT22;21578;47.892;9.970;2023-05-07T13:44:14;24.50;65.90
35463;DHT22;21578;47.892;9.970;2023-05-07T13:49:01;24.70;67.10
35463;DHT22;21578;47.892;9.970;2023-05-07T13:53:48;24.70;66.50
35463;DHT22;21578;47.892;9.970;2023-05-07T13:58:37;24.40;66.70
35463;DHT22;21578;47.892;9.970;2023-05-07T14:03:24;24.50;68.70
35463;DHT22;21578;47.892;9.970;2023-05-07T14:08:11;24.60;69.00
35463;DHT22;21578;47.892;9.970;2023-05-07T14:12:59;24.70;70.60
35463;DHT22;21578;47.892;9.970;2023-05-07T14:17:47;24.30;70.90
35463;DHT22;21578;47.892;9.970;2023-05-07T14:22:34;23.80;72.60
35463;DHT22;21578;47.892;9.970;2023-05-07T14:27:21;23.70;72.90
35463;DHT22;21578;47.892;9.970;2023-05-07T14:32:08;24.00;72.60
35463;DHT22;21578;47.892;9.970;2023-05-07T14:36:56;24.00;73.00
35463;DHT22;21578;47.892;9.970;2023-05-07T14:41:43;23.50;72.70
35463;DHT22;21578;47.892;9.970;2023-05-07T14:46:30;23.10;73.80
35463;DHT22;21578;47.892;9.970;2023-05-07T14:51:17;22.60;74.50
35463;DHT22;21578;47.892;9.970;2023-05-07T14:56:06;23.20;73.30
35463;DHT22;21578;47.892;9.970;2023-05-07T15:00:53;23.80;70.40
35463;DHT22;21578;47.892;9.970;2023-05-07T15:05:40;23.90;70.00
35463;DHT22;21578;47.892;9.970;2023-05-07T15:10:27;23.70;70.90
35463;DHT22;21578;47.892;9.970;2023-05-07T15:15:15;23.30;71.50
35463;DHT22;21578;47.892;9.970;2023-05-07T15:20:03;22.80;71.60
35463;DHT22;21578;47.892;9.970;2023-05-07T15:24:50;22.30;73.40
35463;DHT22;21578;47.892;9.970;2023-05-07T15:29:37;22.20;74.80
35463;DHT22;21578;47.892;9.970;2023-05-07T15:34:25;22.00;75.00
35463;DHT22;21578;47.892;9.970;2023-05-07T15:39:12;21.90;74.00
35463;DHT22;21578;47.892;9.970;2023-05-07T15:43:59;21.80;74.10
35463;DHT22;21578;47.892;9.970;2023-05-07T15:48:46;21.70;74.80
35463;DHT22;21578;47.892;9.970;2023-05-07T15:53:35;21.50;76.00
35463;DHT22;21578;47.892;9.970;2023-05-07T15:58:22;19.90;79.20
35463;DHT22;21578;47.892;9.970;2023-05-07T16:03:08;17.70;91.00
35463;DHT22;21578;47.892;9.970;2023-05-07T16:07:55;16.60;96.60
35463;DHT22;21578;47.892;9.970;2023-05-07T16:12:44;15.30;96.60
35463;DHT22;21578;47.892;9.970;2023-05-07T16:17:31;14.30;96.60
35463;DHT22;21578;47.892;9.970;2023-05-07T16:22:18;14.00;96.60
35463;DHT22;21578;47.892;9.970;2023-05-07T16:27:05;14.30;96.60
35463;DHT22;21578;47.892;9.970;2023-05-07T16:31:54;14.40;96.60
35463;DHT22;21578;47.892;9.970;2023-05-07T16:36:41;14.50;96.60
35463;DHT22;21578;47.892;9.970;2023-05-07T16:41:28;14.60;96.60
35463;DHT22;21578;47.892;9.970;2023-05-07T16:46:14;14.50;96.60
35463;DHT22;21578;47.892;9.970;2023-05-07T16:51:03;14.60;96.60
35463;DHT22;21578;47.892;9.970;2023-05-07T16:55:51;14.80;96.60
35463;DHT22;21578;47.892;9.970;2023-05-07T17:00:40;15.00;96.60
35463;DHT22;21578;47.892;9.970;2023-05-07T17:05:27;15.00;96.60
35463;DHT22;21578;47.892;9.970;2023-05-07T17:10:16;15.00;96.60
35463;DHT22;21578;47.892;9.970;2023-05-07T17:15:05;15.10;96.60
35463;DHT22;21578;47.892;9.970;2023-05-07T17:19:52;15.10;96.60
35463;DHT22;21578;47.892;9.970;2023-05-07T17:24:39;15.10;96.60
35463;DHT22;21578;47.892;9.970;2023-05-07T17:29:28;15.10;96.60
35463;DHT22;21578;47.892;9.970;2023-05-07T17:34:15;15.20;96.60
35463;DHT22;21578;47.892;9.970;2023-05-07T17:39:03;15.20;96.60
35463;DHT22;21578;47.892;9.970;2023-05-07T17:43:49;15.30;96.60
35463;DHT22;21578;47.892;9.970;2023-05-07T17:48:38;15.30;96.60
35463;DHT22;21578;47.892;9.970;2023-05-07T17:53:25;15.20;96.60
35463;DHT22;21578;47.892;9.970;2023-05-07T18:03:50;15.20;96.60
35463;DHT22;21578;47.892;9.970;2023-05-07T18:08:37;15.10;96.60
35463;DHT22;21578;47.892;9.970;2023-05-07T18:13:23;14.90;96.60
35463;DHT22;21578;47.892;9.970;2023-05-07T18:18:11;15.00;96.60
35463;DHT22;21578;47.892;9.970;2023-05-07T18:22:59;15.00;96.60
35463;DHT22;21578;47.892;9.970;2023-05-07T18:27:46;15.00;96.60
35463;DHT22;21578;47.892;9.970;2023-05-07T18:32:33;15.10;96.60
35463;DHT22;21578;47.892;9.970;2023-05-07T18:37:20;15.10;96.60
35463;DHT22;21578;47.892;9.970;2023-05-07T18:42:08;15.00;96.60
35463;DHT22;21578;47.892;9.970;2023-05-07T18:46:55;14.90;96.60
35463;DHT22;21578;47.892;9.970;2023-05-07T18:51:42;14.90;96.60
35463;DHT22;21578;47.892;9.970;2023-05-07T18:56:30;15.00;96.60
35463;DHT22;21578;47.892;9.970;2023-05-07T19:01:18;14.90;96.60
35463;DHT22;21578;47.892;9.970;2023-05-07T19:06:05;14.90;96.60
35463;DHT22;21578;47.892;9.970;2023-05-07T19:10:54;14.90;96.60
35463;DHT22;21578;47.892;9.970;2023-05-07T19:15:41;14.80;96.60
35463;DHT22;21578;47.892;9.970;2023-05-07T19:20:29;14.80;96.60
35463;DHT22;21578;47.892;9.970;2023-05-07T19:25:16;14.80;96.60
35463;DHT22;21578;47.892;9.970;2023-05-07T19:30:05;14.70;96.60
35463;DHT22;21578;47.892;9.970;2023-05-07T19:34:52;14.70;96.60
35463;DHT22;21578;47.892;9.970;2023-05-07T19:39:40;14.60;96.60
35463;DHT22;21578;47.892;9.970;2023-05-07T19:44:27;14.60;96.60
35463;DHT22;21578;47.892;9.970;2023-05-07T19:49:14;14.60;96.60
35463;DHT22;21578;47.892;9.970;2023-05-07T19:54:01;14.60;96.60
35463;DHT22;21578;47.892;9.970;2023-05-07T19:58:49;14.60;96.60
35463;DHT22;21578;47.892;9.970;2023-05-07T20:03:37;14.50;96.60
35463;DHT22;21578;47.892;9.970;2023-05-07T20:08:24;14.50;96.60
35463;DHT22;21578;47.892;9.970;2023-05-07T20:13:12;14.50;96.60
35463;DHT22;21578;47.892;9.970;2023-05-07T20:18:00;14.40;96.60
35463;DHT22;21578;47.892;9.970;2023-05-07T20:22:47;14.40;96.60
35463;DHT22;21578;47.892;9.970;2023-05-07T20:27:34;14.40;96.60
35463;DHT22;21578;47.892;9.970;2023-05-07T20:32:24;14.30;96.60
35463;DHT22;21578;47.892;9.970;2023-05-07T20:37:13;14.30;96.60
35463;DHT22;21578;47.892;9.970;2023-05-07T20:42:00;14.30;96.60
35463;DHT22;21578;47.892;9.970;2023-05-07T20:46:47;14.20;96.60
35463;DHT22;21578;47.892;9.970;2023-05-07T20:51:34;14.10;96.60
35463;DHT22;21578;47.892;9.970;2023-05-07T20:56:22;14.20;96.60
35463;DHT22;21578;47.892;9.970;2023-05-07T21:01:09;14.20;96.60
35463;DHT22;21578;47.892;9.970;2023-05-07T21:05:56;14.20;96.60
35463;DHT22;21578;47.892;9.970;2023-05-07T21:10:45;14.30;96.60
35463;DHT22;21578;47.892;9.970;2023-05-07T21:15:33;14.10;96.60
35463;DHT22;21578;47.892;9.970;2023-05-07T21:20:20;14.10;96.60
35463;DHT22;21578;47.892;9.970;2023-05-07T21:25:08;14.10;96.60
35463;DHT22;21578;47.892;9.970;2023-05-07T21:29:55;14.10;96.60
35463;DHT22;21578;47.892;9.970;2023-05-07T21:34:49;14.00;96.60
35463;DHT22;21578;47.892;9.970;2023-05-07T21:39:35;14.00;96.60
35463;DHT22;21578;47.892;9.970;2023-05-07T21:44:22;14.00;96.60
35463;DHT22;21578;47.892;9.970;2023-05-07T21:49:09;13.90;96.60
35463;DHT22;21578;47.892;9.970;2023-05-07T21:53:57;13.90;96.60
35463;DHT22;21578;47.892;9.970;2023-05-07T21:58:44;13.90;96.60
35463;DHT22;21578;47.892;9.970;2023-05-07T22:03:33;13.90;96.60
35463;DHT22;21578;47.892;9.970;2023-05-07T22:08:19;13.90;96.60
35463;DHT22;21578;47.892;9.970;2023-05-07T22:13:08;13.90;96.60
35463;DHT22;21578;47.892;9.970;2023-05-07T22:17:55;13.90;96.60
35463;DHT22;21578;47.892;9.970;2023-05-07T22:22:45;13.90;96.60
35463;DHT22;21578;47.892;9.970;2023-05-07T22:27:32;14.00;96.60
35463;DHT22;21578;47.892;9.970;2023-05-07T22:32:20;14.00;96.60
35463;DHT22;21578;47.892;9.970;2023-05-07T22:37:07;14.00;96.60
35463;DHT22;21578;47.892;9.970;2023-05-07T22:41:54;14.00;96.60
35463;DHT22;21578;47.892;9.970;2023-05-07T22:46:41;14.00;96.60
35463;DHT22;21578;47.892;9.970;2023-05-07T22:51:29;14.00;96.60
35463;DHT22;21578;47.892;9.970;2023-05-07T22:56:16;13.90;96.60
35463;DHT22;21578;47.892;9.970;2023-05-07T23:01:10;13.90;96.60
35463;DHT22;21578;47.892;9.970;2023-05-07T23:05:57;13.90;96.60
35463;DHT22;21578;47.892;9.970;2023-05-07T23:10:46;14.00;96.60
35463;DHT22;21578;47.892;9.970;2023-05-07T23:15:33;13.90;96.60
35463;DHT22;21578;47.892;9.970;2023-05-07T23:20:19;13.90;96.60
35463;DHT22;21578;47.892;9.970;2023-05-07T23:25:07;13.90;96.60
35463;DHT22;21578;47.892;9.970;2023-05-07T23:29:56;14.00;96.60
35463;DHT22;21578;47.892;9.970;2023-05-07T23:34:42;13.90;96.60
35463;DHT22;21578;47.892;9.970;2023-05-07T23:39:29;13.90;96.60
35463;DHT22;21578;47.892;9.970;2023-05-07T23:44:16;13.90;96.60
35463;DHT22;21578;47.892;9.970;2023-05-07T23:49:04;13.80;96.60
35463;DHT22;21578;47.892;9.970;2023-05-07T23:53:51;13.80;96.60
35463;DHT22;21578;47.892;9.970;2023-05-07T23:58:38;13.70;96.60
